createdAt,value
2019-03-10T00:00:28.350Z,1.40
2019-03-10T00:02:56.773Z,2.70
2019-03-10T00:05:25.181Z,3.37
2019-03-10T00:07:53.675Z,3.20
2019-03-10T00:10:22.074Z,3.90
2019-03-10T00:12:50.486Z,2.03
2019-03-10T00:15:18.881Z,1.90
2019-03-10T00:17:47.301Z,1.97
2019-03-10T00:20:15.704Z,1.50
2019-03-10T00:22:44.153Z,1.80
2019-03-10T00:25:12.790Z,1.33
2019-03-10T00:27:41.200Z,1.83
2019-03-10T00:30:14.902Z,1.67
2019-03-10T00:32:43.412Z,1.77
2019-03-10T00:35:11.946Z,1.70
2019-03-10T00:37:40.346Z,1.30
2019-03-10T00:40:45.570Z,1.40
2019-03-10T00:43:48.841Z,1.60
2019-03-10T00:46:39.890Z,1.37
2019-03-10T00:49:20.264Z,1.80
2019-03-10T00:52:07.996Z,1.40
2019-03-10T00:54:36.380Z,1.83
2019-03-10T00:57:04.955Z,1.57
2019-03-10T00:59:33.368Z,1.67
2019-03-10T01:02:01.792Z,1.57
2019-03-10T01:04:30.259Z,1.30
2019-03-10T01:06:58.745Z,1.60
2019-03-10T01:09:27.148Z,1.63
2019-03-10T01:11:55.797Z,1.63
2019-03-10T01:14:24.206Z,1.50
2019-03-10T01:16:52.752Z,1.50
2019-03-10T01:19:22.487Z,1.70
2019-03-10T01:21:51.329Z,1.30
2019-03-10T01:24:19.723Z,1.20
2019-03-10T01:26:48.143Z,1.30
2019-03-10T01:29:16.540Z,1.10
2019-03-10T01:32:13.866Z,1.50
2019-03-10T01:34:54.197Z,1.30
2019-03-10T01:37:22.623Z,1.60
2019-03-10T01:39:51.009Z,1.30
2019-03-10T01:42:19.438Z,1.50
2019-03-10T01:44:47.840Z,1.60
2019-03-10T01:47:16.248Z,1.40
2019-03-10T01:49:44.647Z,1.33
2019-03-10T01:52:13.059Z,1.20
2019-03-10T01:54:41.452Z,1.50
2019-03-10T01:57:09.939Z,1.23
2019-03-10T01:59:38.329Z,1.40
2019-03-10T02:02:06.736Z,1.33
2019-03-10T02:04:35.151Z,1.37
2019-03-10T02:07:03.562Z,0.93
2019-03-10T02:09:32.094Z,1.10
2019-03-10T02:12:00.495Z,1.40
2019-03-10T02:14:28.916Z,1.10
2019-03-10T02:16:57.314Z,1.00
2019-03-10T02:19:25.708Z,1.50
2019-03-10T02:21:54.141Z,0.90
2019-03-10T02:24:24.015Z,1.50
2019-03-10T02:26:52.820Z,1.43
2019-03-10T02:29:21.239Z,1.30
2019-03-10T02:31:49.641Z,1.67
2019-03-10T02:34:18.043Z,1.20
2019-03-10T02:36:46.768Z,2.30
2019-03-10T02:39:15.188Z,1.70
2019-03-10T02:41:43.585Z,1.70
2019-03-10T02:44:11.996Z,1.40
2019-03-10T02:46:40.397Z,1.30
2019-03-10T02:49:08.810Z,1.70
2019-03-10T02:51:37.204Z,1.40
2019-03-10T02:54:05.616Z,1.23
2019-03-10T02:56:34.008Z,1.33
2019-03-10T02:59:02.414Z,1.30
2019-03-10T03:01:30.803Z,1.17
2019-03-10T03:03:59.413Z,1.20
2019-03-10T03:06:27.873Z,1.23
2019-03-10T03:08:57.147Z,1.30
2019-03-10T03:11:25.527Z,1.27
2019-03-10T03:13:53.953Z,0.90
2019-03-10T03:16:22.351Z,1.10
2019-03-10T03:18:50.756Z,1.00
2019-03-10T03:21:19.173Z,1.30
2019-03-10T03:23:47.582Z,1.33
2019-03-10T03:26:15.991Z,1.40
2019-03-10T03:28:44.399Z,1.10
2019-03-10T03:31:12.813Z,1.20
2019-03-10T03:33:41.238Z,0.87
2019-03-10T03:36:15.569Z,1.37
2019-03-10T03:39:00.387Z,0.90
2019-03-10T03:41:28.794Z,0.97
2019-03-10T03:43:57.182Z,0.70
2019-03-10T03:46:25.607Z,0.53
2019-03-10T03:48:54.015Z,0.70
2019-03-10T03:51:22.402Z,0.60
2019-03-10T03:53:50.811Z,0.73
2019-03-10T03:56:19.224Z,0.70
2019-03-10T03:58:47.630Z,0.90
2019-03-10T04:01:17.761Z,0.73
2019-03-10T04:03:46.191Z,0.70
2019-03-10T04:06:14.574Z,0.50
2019-03-10T04:09:02.391Z,0.80
2019-03-10T04:11:30.780Z,0.80
2019-03-10T04:13:59.211Z,0.53
2019-03-10T04:16:27.610Z,0.60
2019-03-10T04:18:56.039Z,0.60
2019-03-10T04:21:24.420Z,0.80
2019-03-10T04:23:52.844Z,0.90
2019-03-10T04:26:21.265Z,0.80
2019-03-10T04:28:49.662Z,0.50
2019-03-10T04:31:18.076Z,0.70
2019-03-10T04:33:46.476Z,0.60
2019-03-10T04:36:14.891Z,0.67
2019-03-10T04:38:43.283Z,0.70
2019-03-10T04:41:11.714Z,0.60
2019-03-10T04:43:40.338Z,0.83
2019-03-10T04:46:08.756Z,0.90
2019-03-10T04:48:37.162Z,0.80
2019-03-10T04:51:05.575Z,0.70
2019-03-10T04:53:33.957Z,0.70
2019-03-10T04:56:07.048Z,0.80
2019-03-10T04:58:37.094Z,0.60
2019-03-10T05:01:05.522Z,0.60
2019-03-10T05:03:33.907Z,0.97
2019-03-10T05:06:02.350Z,0.77
2019-03-10T05:08:30.731Z,0.70
2019-03-10T05:10:59.152Z,1.10
2019-03-10T05:13:27.555Z,0.80
2019-03-10T05:15:55.975Z,3.33
2019-03-10T05:18:24.387Z,1.60
2019-03-10T05:20:52.806Z,2.50
2019-03-10T05:23:32.771Z,1.07
2019-03-10T05:26:01.306Z,2.40
2019-03-10T05:28:51.483Z,2.70
2019-03-10T05:31:19.911Z,2.50
2019-03-10T05:33:48.293Z,3.43
2019-03-10T05:36:16.713Z,1.53
2019-03-10T05:38:45.112Z,1.27
2019-03-10T05:41:13.631Z,3.90
2019-03-10T05:43:42.041Z,18.83
2019-03-10T05:46:10.456Z,17.57
2019-03-10T05:48:38.871Z,22.93
2019-03-10T05:51:07.274Z,12.90
2019-03-10T05:53:35.690Z,4.03
2019-03-10T05:56:04.083Z,1.50
2019-03-10T05:58:32.475Z,1.37
2019-03-10T06:01:00.889Z,1.43
2019-03-10T06:03:29.294Z,2.10
2019-03-10T06:05:57.741Z,1.77
2019-03-10T06:08:26.144Z,1.07
2019-03-10T06:10:54.559Z,1.37
2019-03-10T06:13:22.953Z,1.23
2019-03-10T06:15:51.345Z,0.90
2019-03-10T06:18:19.743Z,1.10
2019-03-10T06:20:48.174Z,1.50
2019-03-10T06:23:16.547Z,1.30
2019-03-10T06:25:44.946Z,1.20
2019-03-10T06:28:14.253Z,1.43
2019-03-10T06:30:42.655Z,1.70
2019-03-10T06:33:11.128Z,1.73
2019-03-10T06:35:39.531Z,1.40
2019-03-10T06:38:07.937Z,1.80
2019-03-10T06:40:36.416Z,1.70
2019-03-10T06:43:04.800Z,1.77
2019-03-10T06:45:33.291Z,1.80
2019-03-10T06:48:01.684Z,2.13
2019-03-10T06:50:30.089Z,1.93
2019-03-10T06:52:58.484Z,2.80
2019-03-10T06:55:26.891Z,2.13
2019-03-10T06:57:55.293Z,1.70
2019-03-10T07:00:23.672Z,1.43
2019-03-10T07:02:52.097Z,1.20
2019-03-10T07:05:20.491Z,1.40
2019-03-10T07:07:48.895Z,1.40
2019-03-10T07:10:17.437Z,1.20
2019-03-10T07:12:45.827Z,1.30
2019-03-10T07:15:14.485Z,2.10
2019-03-10T07:17:42.962Z,1.30
2019-03-10T07:20:13.799Z,1.30
2019-03-10T07:22:42.233Z,1.00
2019-03-10T07:25:10.779Z,2.10
2019-03-10T07:27:57.023Z,1.73
2019-03-10T07:30:33.055Z,1.57
2019-03-10T07:33:14.815Z,1.37
2019-03-10T07:35:44.878Z,1.67
2019-03-10T07:38:23.666Z,1.43
2019-03-10T07:40:59.573Z,3.80
2019-03-10T07:43:35.559Z,5.10
2019-03-10T07:46:05.597Z,4.40
2019-03-10T07:48:44.299Z,3.07
2019-03-10T07:51:23.250Z,2.47
2019-03-10T07:53:53.334Z,3.80
2019-03-10T07:56:26.562Z,5.60
2019-03-10T07:59:02.787Z,3.73
2019-03-10T08:01:32.851Z,2.30
2019-03-10T08:04:21.000Z,2.97
2019-03-10T08:07:07.352Z,2.20
2019-03-10T08:09:37.458Z,2.97
2019-03-10T08:12:07.589Z,3.33
2019-03-10T08:14:43.732Z,3.37
2019-03-10T08:17:16.647Z,2.97
2019-03-10T08:19:46.683Z,4.43
2019-03-10T08:22:19.665Z,4.03
2019-03-10T08:24:58.725Z,3.23
2019-03-10T08:27:37.252Z,3.80
2019-03-10T08:30:12.641Z,2.37
2019-03-10T08:32:42.693Z,2.23
2019-03-10T08:35:12.732Z,2.50
2019-03-10T08:37:45.747Z,1.23
2019-03-10T08:40:15.789Z,1.73
2019-03-10T08:42:54.733Z,0.83
2019-03-10T08:45:27.755Z,2.20
2019-03-10T08:48:09.881Z,2.70
2019-03-10T08:50:42.601Z,2.60
2019-03-10T08:53:25.138Z,3.67
2019-03-10T08:55:55.180Z,2.30
2019-03-10T08:58:40.217Z,1.23
2019-03-10T09:01:13.049Z,2.60
2019-03-10T09:03:43.127Z,0.90
2019-03-10T09:06:13.151Z,1.13
2019-03-10T09:08:45.871Z,1.33
2019-03-10T09:11:34.186Z,1.10
2019-03-10T09:14:07.214Z,1.20
2019-03-10T09:16:53.515Z,2.20
2019-03-10T09:19:23.565Z,2.13
2019-03-10T09:22:00.213Z,1.57
2019-03-10T09:24:42.455Z,0.90
2019-03-10T09:27:30.945Z,1.43
2019-03-10T09:30:19.336Z,0.70
2019-03-10T09:32:52.226Z,0.50
2019-03-10T09:35:25.344Z,1.77
2019-03-10T09:40:37.133Z,3.90
2019-03-10T09:43:19.113Z,3.53
2019-03-10T09:48:49.550Z,3.73
2019-03-10T09:51:25.021Z,5.03
2019-03-10T09:53:58.045Z,1.77
2019-03-10T09:56:46.524Z,3.50
2019-03-10T09:59:22.479Z,2.77
2019-03-10T10:02:10.716Z,2.07
2019-03-10T10:04:56.074Z,1.90
2019-03-10T10:07:43.940Z,1.60
2019-03-10T10:10:30.354Z,1.20
2019-03-10T10:13:16.681Z,1.60
2019-03-10T10:15:49.394Z,1.13
2019-03-10T10:18:19.452Z,1.40
2019-03-10T10:20:55.330Z,1.07
2019-03-10T10:23:25.460Z,1.43
2019-03-10T10:25:55.620Z,1.70
2019-03-10T10:28:34.672Z,1.10
2019-03-10T10:31:04.804Z,1.20
2019-03-10T10:33:37.552Z,0.90
2019-03-10T10:36:16.379Z,1.23
2019-03-10T10:38:58.464Z,4.27
2019-03-10T10:41:31.722Z,6.50
2019-03-10T10:44:19.618Z,2.20
2019-03-10T10:46:49.670Z,1.57
2019-03-10T10:49:19.727Z,1.30
2019-03-10T10:52:06.324Z,1.40
2019-03-10T10:54:54.760Z,1.50
2019-03-10T10:57:24.801Z,0.73
2019-03-10T10:59:57.529Z,1.40
2019-03-10T11:02:42.597Z,2.00
2019-03-10T11:07:54.284Z,2.43
2019-03-10T11:10:24.332Z,1.60
2019-03-10T11:12:54.365Z,1.07
2019-03-10T11:15:24.402Z,0.80
2019-03-10T11:17:54.429Z,3.00
2019-03-10T11:20:27.592Z,2.77
2019-03-10T11:23:13.909Z,3.33
2019-03-10T11:26:00.556Z,1.73
2019-03-10T11:28:36.546Z,0.60
2019-03-10T11:31:09.369Z,0.87
2019-03-10T11:33:45.377Z,1.37
2019-03-10T11:36:15.426Z,1.23
2019-03-10T11:38:45.460Z,1.63
2019-03-10T11:41:21.515Z,0.80
2019-03-10T11:43:57.531Z,0.80
2019-03-10T11:46:33.563Z,1.23
2019-03-10T11:49:15.613Z,0.70
2019-03-10T11:52:01.974Z,3.83
2019-03-10T11:54:53.888Z,3.60
2019-03-10T11:57:29.673Z,3.40
2019-03-10T12:00:16.923Z,2.47
2019-03-10T12:03:05.352Z,1.33
2019-03-10T12:05:50.611Z,1.70
2019-03-10T12:08:23.225Z,4.10
2019-03-10T12:10:51.708Z,2.63
2019-03-10T12:13:20.142Z,0.67
2019-03-10T12:15:48.606Z,2.00
2019-03-10T12:18:17.013Z,1.00
2019-03-10T12:20:45.458Z,1.83
2019-03-10T12:23:13.851Z,4.50
2019-03-10T12:25:42.264Z,4.90
2019-03-10T12:28:10.677Z,2.00
2019-03-10T12:30:39.096Z,0.40
2019-03-10T12:33:07.486Z,0.80
2019-03-10T12:35:35.906Z,0.67
2019-03-10T12:38:04.328Z,1.00
2019-03-10T12:40:32.778Z,0.60
2019-03-10T12:43:01.181Z,0.43
2019-03-10T12:45:29.618Z,0.60
2019-03-10T12:47:58.024Z,0.50
2019-03-10T12:50:26.427Z,0.50
2019-03-10T12:52:54.843Z,0.80
2019-03-10T12:55:24.234Z,0.37
2019-03-10T12:57:52.745Z,0.50
2019-03-10T13:00:21.169Z,0.40
2019-03-10T13:02:49.570Z,0.40
2019-03-10T13:05:17.984Z,0.73
2019-03-10T13:07:46.380Z,0.60
2019-03-10T13:10:14.796Z,0.67
2019-03-10T13:12:43.203Z,0.50
2019-03-10T13:15:12.558Z,0.50
2019-03-10T13:17:41.231Z,0.40
2019-03-10T13:20:11.329Z,0.47
2019-03-10T13:22:39.805Z,0.60
2019-03-10T13:25:12.255Z,0.67
2019-03-10T13:27:40.651Z,0.53
2019-03-10T13:30:15.002Z,0.90
2019-03-10T13:32:44.615Z,0.60
2019-03-10T13:35:13.537Z,0.53
2019-03-10T13:37:41.942Z,0.60
2019-03-10T13:40:14.493Z,0.60
2019-03-10T13:42:42.980Z,0.60
2019-03-10T13:45:13.306Z,0.90
2019-03-10T13:47:41.720Z,0.70
2019-03-10T13:50:15.058Z,0.77
2019-03-10T13:52:43.608Z,0.83
2019-03-10T13:55:12.098Z,0.93
2019-03-10T13:57:40.510Z,0.97
2019-03-10T14:00:21.259Z,0.73
2019-03-10T14:02:49.674Z,0.90
2019-03-10T14:05:18.144Z,1.13
2019-03-10T14:07:46.615Z,0.80
2019-03-10T14:10:21.958Z,0.83
2019-03-10T14:12:50.385Z,1.07
2019-03-10T14:15:19.722Z,0.90
2019-03-10T14:17:48.131Z,0.80
2019-03-10T14:20:17.025Z,0.90
2019-03-10T14:22:45.488Z,0.80
2019-03-10T14:25:15.883Z,0.83
2019-03-10T14:27:44.439Z,1.13
2019-03-10T14:30:17.776Z,0.73
2019-03-10T14:32:47.179Z,1.03
2019-03-10T14:35:16.047Z,0.90
2019-03-10T14:37:44.473Z,1.00
2019-03-10T14:40:20.857Z,1.00
2019-03-10T14:42:49.259Z,1.53
2019-03-10T14:45:18.695Z,1.03
2019-03-10T14:47:47.116Z,1.00
2019-03-10T14:50:17.542Z,0.70
2019-03-10T14:52:46.126Z,1.03
2019-03-10T14:55:21.500Z,0.97
2019-03-10T14:57:49.998Z,0.83
2019-03-10T15:00:24.115Z,1.30
2019-03-10T15:02:52.666Z,0.90
2019-03-10T15:05:22.030Z,0.93
2019-03-10T15:07:50.471Z,1.20
2019-03-10T15:10:19.008Z,1.20
2019-03-10T15:12:47.512Z,1.23
2019-03-10T15:15:22.520Z,1.20
2019-03-10T15:17:48.343Z,1.30
2019-03-10T15:20:17.700Z,1.20
2019-03-10T15:22:46.326Z,1.30
2019-03-10T15:25:19.753Z,1.33
2019-03-10T15:27:48.232Z,1.37
2019-03-10T15:30:21.799Z,1.43
2019-03-10T15:32:50.238Z,2.07
2019-03-10T15:35:19.582Z,1.50
2019-03-10T15:37:48.059Z,1.93
2019-03-10T15:40:17.524Z,1.50
2019-03-10T15:42:45.939Z,1.40
2019-03-10T15:45:15.791Z,1.30
2019-03-10T15:47:44.209Z,2.03
2019-03-10T15:50:24.792Z,2.00
2019-03-10T15:52:53.220Z,2.30
2019-03-10T15:55:21.607Z,2.23
2019-03-10T15:57:50.917Z,2.60
2019-03-10T16:00:24.410Z,1.50
2019-03-10T16:02:53.824Z,1.90
2019-03-10T16:05:22.297Z,1.57
2019-03-10T16:07:50.713Z,2.30
2019-03-10T16:10:19.269Z,2.33
2019-03-10T16:12:49.388Z,1.60
2019-03-10T16:15:23.538Z,2.50
2019-03-10T16:17:53.858Z,1.90
2019-03-10T16:20:22.258Z,1.80
2019-03-10T16:22:51.058Z,2.73
2019-03-10T16:25:19.714Z,2.43
2019-03-10T16:27:49.974Z,2.03
2019-03-10T16:30:22.360Z,1.93
2019-03-10T16:32:50.945Z,2.57
2019-03-10T16:35:21.826Z,2.50
2019-03-10T16:37:49.481Z,2.07
2019-03-10T16:40:20.948Z,2.97
2019-03-10T16:42:49.728Z,2.63
2019-03-10T16:45:20.365Z,2.87
2019-03-10T16:47:48.864Z,2.53
2019-03-10T16:50:24.825Z,2.03
2019-03-10T16:52:53.313Z,2.00
2019-03-10T16:55:21.707Z,2.20
2019-03-10T16:57:50.188Z,2.20
2019-03-10T17:00:20.837Z,2.40
2019-03-10T17:02:50.324Z,2.77
2019-03-10T17:05:19.776Z,2.17
2019-03-10T17:07:48.462Z,2.40
2019-03-10T17:10:18.472Z,2.00
2019-03-10T17:12:46.987Z,1.83
2019-03-10T17:15:17.536Z,2.60
2019-03-10T17:17:45.960Z,2.67
2019-03-10T17:20:16.206Z,2.90
2019-03-10T17:22:44.932Z,2.83
2019-03-10T17:25:17.288Z,2.83
2019-03-10T17:27:45.788Z,2.23
2019-03-10T17:30:21.100Z,2.87
2019-03-10T17:32:49.577Z,2.23
2019-03-10T17:35:19.605Z,2.10
2019-03-10T17:37:48.811Z,2.50
2019-03-10T17:40:20.535Z,2.63
2019-03-10T17:42:49.020Z,2.37
2019-03-10T17:45:21.905Z,1.97
2019-03-10T17:47:50.299Z,2.70
2019-03-10T17:50:18.957Z,1.93
2019-03-10T17:52:48.118Z,2.53
2019-03-10T17:55:23.811Z,3.33
2019-03-10T17:57:52.209Z,2.60
2019-03-10T18:00:27.931Z,1.97
2019-03-10T18:02:57.368Z,4.33
2019-03-10T18:05:25.768Z,2.63
2019-03-10T18:07:54.175Z,2.10
2019-03-10T18:10:22.583Z,2.53
2019-03-10T18:12:50.997Z,3.10
2019-03-10T18:15:19.542Z,2.80
2019-03-10T18:17:47.935Z,2.77
2019-03-10T18:20:17.592Z,2.77
2019-03-10T18:22:46.060Z,2.93
2019-03-10T18:25:15.007Z,3.27
2019-03-10T18:27:43.480Z,2.83
2019-03-10T18:30:22.636Z,3.30
2019-03-10T18:32:51.070Z,1.63
2019-03-10T18:35:19.628Z,2.30
2019-03-10T18:37:50.201Z,2.20
2019-03-10T18:40:28.020Z,2.77
2019-03-10T18:42:56.479Z,2.23
2019-03-10T18:45:24.952Z,3.07
2019-03-10T18:47:53.338Z,3.47
2019-03-10T18:50:27.870Z,10.53
2019-03-10T18:52:56.411Z,7.23
2019-03-10T18:55:25.144Z,2.93
2019-03-10T18:57:53.546Z,3.30
2019-03-10T19:00:29.237Z,1.60
2019-03-10T19:03:34.103Z,2.30
2019-03-10T19:06:02.492Z,2.10
2019-03-10T19:08:30.905Z,2.37
2019-03-10T19:10:59.299Z,2.60
2019-03-10T19:13:27.706Z,2.20
2019-03-10T19:15:56.100Z,3.20
2019-03-10T19:18:24.553Z,2.37
2019-03-10T19:20:55.627Z,4.37
2019-03-10T19:23:24.036Z,2.50
2019-03-10T19:25:52.452Z,2.00
2019-03-10T19:28:20.866Z,2.30
2019-03-10T19:30:49.295Z,1.97
2019-03-10T19:33:17.678Z,1.80
2019-03-10T19:35:46.108Z,2.10
2019-03-10T19:38:14.486Z,2.10
2019-03-10T19:40:42.895Z,1.77
2019-03-10T19:43:11.302Z,1.70
2019-03-10T19:45:39.774Z,1.83
2019-03-10T19:48:08.189Z,2.37
2019-03-10T19:50:36.595Z,5.83
2019-03-10T19:53:04.996Z,1.93
2019-03-10T19:55:33.411Z,1.60
2019-03-10T19:58:01.809Z,2.20
2019-03-10T20:00:30.220Z,1.93
2019-03-10T20:02:58.625Z,2.80
2019-03-10T20:05:27.104Z,2.10
2019-03-10T20:07:55.539Z,1.87
2019-03-10T20:10:24.568Z,2.37
2019-03-10T20:12:53.031Z,1.73
2019-03-10T20:15:23.457Z,2.43
2019-03-10T20:17:51.852Z,2.10
2019-03-10T20:20:22.304Z,3.90
2019-03-10T20:22:50.725Z,2.07
2019-03-10T20:25:19.140Z,2.03
2019-03-10T20:27:47.553Z,2.03
2019-03-10T20:30:20.850Z,2.60
2019-03-10T20:32:49.338Z,1.80
2019-03-10T20:35:18.127Z,2.70
2019-03-10T20:37:46.600Z,2.10
2019-03-10T20:40:22.530Z,2.43
2019-03-10T20:42:50.908Z,3.30
2019-03-10T20:45:19.378Z,3.37
2019-03-10T20:47:47.855Z,3.70
2019-03-10T20:50:18.062Z,2.13
2019-03-10T20:52:46.544Z,3.53
2019-03-10T20:55:15.293Z,3.63
2019-03-10T20:57:44.117Z,2.80
2019-03-10T21:00:15.609Z,3.23
2019-03-10T21:02:44.081Z,2.13
2019-03-10T21:05:12.828Z,9.57
2019-03-10T21:07:41.237Z,10.67
2019-03-10T21:10:27.127Z,6.10
2019-03-10T21:12:55.575Z,6.60
2019-03-10T21:15:26.211Z,7.07
2019-03-10T21:17:54.739Z,2.20
2019-03-10T21:20:24.406Z,7.67
2019-03-10T21:22:52.878Z,23.00
2019-03-10T21:25:29.935Z,11.60
2019-03-10T21:27:58.510Z,3.33
2019-03-10T21:30:31.110Z,5.50
2019-03-10T21:32:59.658Z,21.13
2019-03-10T21:35:28.063Z,6.17
2019-03-10T21:37:56.527Z,5.40
2019-03-10T21:40:28.015Z,4.33
2019-03-10T21:42:56.419Z,3.90
2019-03-10T21:45:24.894Z,3.17
2019-03-10T21:47:53.291Z,2.47
2019-03-10T21:50:21.761Z,2.00
2019-03-10T21:52:50.223Z,2.37
2019-03-10T21:55:18.681Z,1.67
2019-03-10T21:57:47.117Z,2.67
2019-03-10T22:00:19.628Z,2.03
2019-03-10T22:02:48.078Z,1.70
2019-03-10T22:05:17.326Z,2.47
2019-03-10T22:07:45.808Z,2.87
2019-03-10T22:10:27.455Z,2.33
2019-03-10T22:12:51.662Z,2.17
2019-03-10T22:15:21.010Z,4.00
2019-03-10T22:17:49.489Z,2.67
2019-03-10T22:20:18.536Z,3.97
2019-03-10T22:22:49.563Z,2.70
2019-03-10T22:25:17.293Z,2.57
2019-03-10T22:27:46.480Z,2.43
2019-03-10T22:30:22.197Z,2.97
2019-03-10T22:32:50.591Z,2.60
2019-03-10T22:35:18.991Z,2.13
2019-03-10T22:37:47.460Z,2.77
2019-03-10T22:40:17.099Z,2.17
2019-03-10T22:42:45.503Z,2.60
2019-03-10T22:45:20.628Z,2.50
2019-03-10T22:47:49.028Z,2.60
2019-03-10T22:50:17.774Z,2.40
2019-03-10T22:52:46.204Z,2.60
2019-03-10T22:55:15.342Z,3.27
2019-03-10T22:57:43.739Z,3.53
2019-03-10T23:00:42.597Z,2.83
2019-03-10T23:03:10.970Z,3.07
2019-03-10T23:05:41.477Z,3.33
2019-03-10T23:08:10.459Z,2.63
2019-03-10T23:10:38.964Z,2.60
2019-03-10T23:13:07.421Z,2.97
2019-03-10T23:15:35.840Z,3.30
2019-03-10T23:18:04.353Z,3.57
2019-03-10T23:20:32.747Z,3.53
2019-03-10T23:23:01.237Z,2.93
2019-03-10T23:25:29.708Z,2.17
2019-03-10T23:27:58.192Z,3.17
2019-03-10T23:30:26.590Z,3.63
2019-03-10T23:32:54.988Z,3.00
2019-03-10T23:35:23.387Z,2.63
2019-03-10T23:37:51.793Z,2.80
2019-03-10T23:40:20.337Z,2.53
2019-03-10T23:42:48.824Z,2.70
2019-03-10T23:45:18.164Z,2.97
2019-03-10T23:47:46.825Z,2.50
2019-03-10T23:50:17.933Z,2.20
2019-03-10T23:52:46.424Z,2.17
2019-03-10T23:55:15.445Z,3.00
2019-03-10T23:57:43.855Z,2.37
